Aviation Digital Data Service (ADDS)

Output produced by METARs form (0852 UTC 10 December 2022)
found at http://www.aviationweather.gov/metar/data/
 
KSAV 100753Z AUTO 03005KT 10SM OVC006 14/12 A3014 RMK AO2 RAB04E29 SLP205 P0000 T01390122
KSAV 100831Z 1009/1106 03004KT P6SM VCSH SCT004 OVC006 
     FM100930 02006KT 4SM -RADZ BR OVC004 
     FM101300 03007KT P6SM OVC008
       
KSVN 100845Z AUTO 03005KT 10SM OVC006 14/13 A3010 RMK AO2 RAB31E41DZB41E45 SLP196 $
TAF KSVN 092055Z 0921/1103 07009KT 9999 OVC006 QNH3007INS 
     BECMG 1005/1006 05004KT 9999 VCSH OVC005 QNH3010INS 
     TEMPO 1005/1012 4800 RA BR 
     BECMG 1012/1013 05006KT 9999 OVC006 QNH3017INS 
     BECMG 1018/1019 04008KT 9999 BKN007 OVC015 QNH3015INS TX18/0921Z TN13/1012Z
LAST NO AMDS AFT 1004 NEXT 1203
       
KLHW 100815Z AUTO 03006KT 10SM OVC006 15/14 A3010 RMK AO2 SLP196 $
KTBR 100835Z AUTO 08003KT 4SM +RA BKN004 OVC012 12/11 A3014 RMK AO2 T01230114
KVDI 100835Z AUTO 00000KT 4SM -RA OVC002 15/14 A3014 RMK AO2
KJYL 100835Z AUTO 07003KT 4SM DZ OVC005 13/12 A3016 RMK AO2 T01250120
KDBN 100835Z AUTO 04005KT 10SM OVC005 13/12 A3017 RMK AO2
KJES 100830Z AUTO 00000KT 1 3/4SM BR OVC002 17/16 A3014 RMK AO2
KSSI 100846Z AUTO 03008KT 9SM BKN006 OVC015 18/16 A3010 RMK AO2 T01830156
KSSI 100540Z 1006/1106 03006KT 6SM BR OVC015 
     TEMPO 1006/1008 OVC008 
     FM100800 03009KT P6SM OVC005 
     FM101700 04013G20KT P6SM OVC008 
     FM102300 03012KT P6SM OVC010
       
KBQK 100835Z AUTO 04003KT 10SM OVC007 17/16 A3011 RMK AO2 T01700158
KAYS 100835Z AUTO 20004KT 7SM OVC007 18/17 A3011 RMK AO2 T01780171
KNBC 100756Z AUTO 03007KT 3SM -RA BR BKN006 OVC009 13/12 A3015 RMK AO2 SFC VIS 3 SLP210 P0002 T01330122
TAF KNBC 0921/1021 VRB06KT 1200 BR OVC003 QNH3004INS 
     TEMPO 0922/1004 0400 SHRA FG OVC003 QNH3006INS 
     BECMG 1015/1017 04008KT 1600 RA BR BKN004 OVC020 QNH3017INS T16/0922Z
T12/1012Z AUTOMATED SENSOR METWATCH 0921 UNTIL 1120 LAST NO AMENDS 0921/NEXT
1115
       
KHXD 100835Z AUTO 04011KT 2 1/2SM -RA OVC006 14/13 A3014 RMK AO2